createdAt,value
2019-02-27T00:01:39.347Z,7.15
2019-02-27T00:04:08.147Z,7.11
2019-02-27T00:06:36.931Z,7.06
2019-02-27T00:09:09.227Z,7.03
2019-02-27T00:11:38.088Z,7.00
2019-02-27T00:14:06.876Z,6.99
2019-02-27T00:16:36.462Z,6.94
2019-02-27T00:19:05.326Z,6.94
2019-02-27T00:21:34.287Z,6.91
2019-02-27T00:24:03.648Z,6.87
2019-02-27T00:26:33.275Z,6.85
2019-02-27T00:29:02.094Z,6.84
2019-02-27T00:31:30.941Z,6.81
2019-02-27T00:34:00.541Z,6.79
2019-02-27T00:36:29.842Z,6.76
2019-02-27T00:38:58.657Z,6.73
2019-02-27T00:41:28.362Z,6.71
2019-02-27T00:44:01.040Z,6.68
2019-02-27T00:46:26.016Z,6.63
2019-02-27T00:48:59.037Z,6.60
2019-02-27T00:51:23.662Z,6.56
2019-02-27T00:53:52.472Z,6.52
2019-02-27T00:56:21.272Z,6.50
2019-02-27T00:58:50.088Z,6.45
2019-02-27T01:01:19.120Z,6.42
2019-02-27T01:03:48.586Z,6.39
2019-02-27T01:06:18.247Z,6.34
2019-02-27T01:08:47.835Z,6.30
2019-02-27T01:11:18.401Z,6.25
2019-02-27T01:13:46.423Z,6.21
2019-02-27T01:16:17.334Z,6.17
2019-02-27T01:18:44.278Z,6.13
2019-02-27T01:21:13.075Z,6.09
2019-02-27T01:23:44.870Z,6.05
2019-02-27T01:26:13.690Z,6.01
2019-02-27T01:28:45.452Z,5.99
2019-02-27T01:31:11.347Z,5.97
2019-02-27T01:33:41.946Z,5.92
2019-02-27T01:36:11.348Z,5.89
2019-02-27T01:38:40.117Z,5.86
2019-02-27T01:41:09.879Z,5.86
2019-02-27T01:43:39.860Z,5.85
2019-02-27T01:46:08.171Z,5.81
2019-02-27T01:48:37.030Z,5.77
2019-02-27T01:51:06.139Z,5.72
2019-02-27T01:53:37.948Z,5.68
2019-02-27T01:56:05.859Z,5.67
2019-02-27T01:58:36.453Z,5.63
2019-02-27T02:01:06.498Z,5.60
2019-02-27T02:03:35.534Z,5.56
2019-02-27T02:06:05.270Z,5.56
2019-02-27T02:08:34.099Z,5.53
2019-02-27T02:11:02.896Z,5.51
2019-02-27T02:13:51.603Z,5.48
2019-02-27T02:18:39.037Z,5.42
2019-02-27T02:21:21.050Z,5.34
2019-02-27T02:26:10.166Z,5.30
2019-02-27T02:29:27.467Z,5.22
2019-02-27T02:32:02.157Z,5.15
2019-02-27T02:34:42.344Z,5.10
2019-02-27T02:37:30.045Z,5.08
2019-02-27T02:42:16.446Z,5.03
2019-02-27T02:44:57.479Z,4.98
2019-02-27T02:47:35.933Z,4.94
2019-02-27T02:51:18.994Z,4.91
2019-02-27T02:56:01.758Z,4.87
2019-02-27T03:00:44.187Z,4.79
2019-02-27T03:03:28.004Z,4.71
2019-02-27T03:06:34.407Z,4.66
2019-02-27T03:09:20.680Z,4.63
2019-02-27T03:12:19.774Z,4.62
2019-02-27T03:15:00.554Z,4.59
2019-02-27T03:19:12.208Z,4.58
2019-02-27T03:23:55.420Z,4.54
2019-02-27T03:26:41.378Z,4.49
2019-02-27T03:29:39.617Z,4.46
2019-02-27T03:32:15.153Z,4.44
2019-02-27T03:35:04.763Z,4.43
2019-02-27T03:37:40.551Z,4.42
2019-02-27T03:40:25.145Z,4.40
2019-02-27T03:43:02.351Z,4.38
2019-02-27T03:45:43.675Z,4.38
2019-02-27T03:48:27.531Z,4.41
2019-02-27T03:51:05.803Z,4.40
2019-02-27T03:54:50.248Z,4.40
2019-02-27T03:58:31.747Z,4.36
2019-02-27T04:01:15.493Z,4.31
2019-02-27T04:04:03.008Z,4.27
2019-02-27T04:07:19.118Z,4.26
2019-02-27T04:09:47.901Z,4.24
2019-02-27T04:12:17.426Z,4.21
2019-02-27T04:14:46.625Z,4.20
2019-02-27T04:17:15.967Z,4.23
2019-02-27T04:19:44.766Z,4.18
2019-02-27T04:22:13.734Z,4.17
2019-02-27T04:24:43.501Z,4.15
2019-02-27T04:27:12.960Z,4.13
2019-02-27T04:29:41.932Z,4.12
2019-02-27T04:32:12.395Z,4.11
2019-02-27T04:34:39.347Z,4.09
2019-02-27T04:37:08.770Z,4.08
2019-02-27T04:39:38.850Z,4.05
2019-02-27T04:42:07.725Z,4.03
2019-02-27T04:44:39.036Z,4.01
2019-02-27T04:47:05.678Z,3.99
2019-02-27T04:49:37.454Z,3.98
2019-02-27T04:52:03.369Z,3.98
2019-02-27T04:54:32.168Z,3.99
2019-02-27T04:57:01.941Z,3.96
2019-02-27T04:59:30.995Z,3.95
2019-02-27T05:01:59.743Z,3.94
2019-02-27T05:04:28.558Z,3.93
2019-02-27T05:06:57.942Z,3.91
2019-02-27T05:09:26.720Z,3.90
2019-02-27T05:11:56.261Z,3.88
2019-02-27T05:14:27.339Z,3.86
2019-02-27T05:16:55.504Z,3.84
2019-02-27T05:19:25.425Z,3.84
2019-02-27T05:21:55.679Z,3.82
2019-02-27T05:24:24.466Z,3.80
2019-02-27T05:26:53.288Z,3.79
2019-02-27T05:29:22.350Z,3.76
2019-02-27T05:31:53.315Z,3.77
2019-02-27T05:34:20.029Z,3.75
2019-02-27T05:36:49.989Z,3.74
2019-02-27T05:39:18.798Z,3.71
2019-02-27T05:41:47.618Z,3.69
2019-02-27T05:44:16.440Z,3.68
2019-02-27T05:46:45.236Z,3.64
2019-02-27T05:49:14.037Z,3.64
2019-02-27T05:51:42.826Z,3.59
2019-02-27T05:54:11.726Z,3.59
2019-02-27T05:56:40.559Z,3.56
2019-02-27T05:59:09.334Z,3.55
2019-02-27T06:01:38.732Z,3.53
2019-02-27T06:04:08.331Z,3.52
2019-02-27T06:06:37.172Z,3.52
2019-02-27T06:09:09.915Z,3.49
2019-02-27T06:11:36.738Z,3.49
2019-02-27T06:14:05.863Z,3.48
2019-02-27T06:16:37.052Z,3.46
2019-02-27T06:19:04.818Z,3.45
2019-02-27T06:21:33.867Z,3.46
2019-02-27T06:24:04.333Z,3.49
2019-02-27T06:26:33.191Z,3.50
2019-02-27T06:29:01.955Z,3.49
2019-02-27T06:31:30.722Z,3.49
2019-02-27T06:33:59.583Z,3.48
2019-02-27T06:36:28.356Z,3.51
2019-02-27T06:39:00.161Z,3.51
2019-02-27T06:41:26.031Z,3.52
2019-02-27T06:43:54.903Z,3.55
2019-02-27T06:46:25.629Z,3.58
2019-02-27T06:48:56.374Z,3.61
2019-02-27T06:51:24.431Z,3.63
2019-02-27T06:53:53.439Z,3.66
2019-02-27T06:56:22.271Z,3.71
2019-02-27T06:58:51.711Z,3.76
2019-02-27T07:01:20.514Z,3.82
2019-02-27T07:03:50.227Z,3.86
2019-02-27T07:06:21.372Z,3.90
2019-02-27T07:08:47.841Z,3.97
2019-02-27T07:11:20.340Z,4.00
2019-02-27T07:13:49.211Z,4.05
2019-02-27T07:16:20.448Z,4.10
2019-02-27T07:18:47.394Z,4.15
2019-02-27T07:21:16.202Z,4.18
2019-02-27T07:23:44.981Z,4.22
2019-02-27T07:26:15.918Z,4.30
2019-02-27T07:28:44.113Z,4.33
2019-02-27T07:31:15.282Z,4.40
2019-02-27T07:33:41.412Z,4.47
2019-02-27T07:36:10.880Z,4.57
2019-02-27T07:38:39.730Z,4.71
2019-02-27T07:41:08.621Z,4.81
2019-02-27T07:43:38.036Z,4.94
2019-02-27T07:46:09.231Z,5.08
2019-02-27T07:48:38.276Z,5.28
2019-02-27T07:51:07.053Z,5.49
2019-02-27T07:53:35.895Z,5.65
2019-02-27T07:56:04.711Z,5.83
2019-02-27T07:58:34.552Z,5.99
2019-02-27T08:01:04.463Z,6.10
2019-02-27T08:03:31.528Z,6.28
2019-02-27T08:06:04.056Z,6.89
2019-02-27T08:08:33.592Z,7.91
2019-02-27T08:11:03.012Z,8.82
2019-02-27T08:13:32.642Z,9.57
2019-02-27T08:16:01.453Z,10.04
2019-02-27T08:18:33.620Z,10.36
2019-02-27T08:20:59.531Z,10.59
2019-02-27T08:23:28.895Z,10.73
2019-02-27T08:25:57.688Z,10.70
2019-02-27T08:28:26.497Z,10.74
2019-02-27T08:30:55.336Z,10.84
2019-02-27T08:33:24.204Z,10.89
2019-02-27T08:35:52.987Z,10.93
2019-02-27T08:38:23.497Z,10.94
2019-02-27T08:40:55.016Z,10.82
2019-02-27T08:43:22.312Z,10.77
2019-02-27T08:45:51.114Z,10.76
2019-02-27T08:48:20.787Z,10.85
2019-02-27T08:50:49.602Z,10.94
2019-02-27T08:53:18.415Z,11.08
2019-02-27T08:55:47.873Z,11.04
2019-02-27T08:58:17.771Z,11.21
2019-02-27T09:00:47.438Z,11.24
2019-02-27T09:03:20.351Z,11.23
2019-02-27T09:05:44.193Z,11.31
2019-02-27T09:08:13.022Z,11.42
2019-02-27T09:10:42.200Z,11.54
2019-02-27T09:13:12.005Z,11.55
2019-02-27T09:15:41.707Z,11.67
2019-02-27T09:18:11.279Z,11.84
2019-02-27T09:20:40.131Z,11.99
2019-02-27T09:23:08.932Z,12.29
2019-02-27T09:25:37.735Z,12.51
2019-02-27T09:28:09.267Z,12.46
2019-02-27T09:30:35.494Z,12.45
2019-02-27T09:33:05.013Z,12.51
2019-02-27T09:35:38.471Z,12.70
2019-02-27T09:38:04.395Z,13.11
2019-02-27T09:40:33.207Z,13.42
2019-02-27T09:43:02.019Z,13.69
2019-02-27T09:45:31.647Z,13.86
2019-02-27T09:48:00.799Z,13.94
2019-02-27T09:50:33.210Z,14.06
2019-02-27T09:53:03.628Z,14.37
2019-02-27T09:55:32.130Z,14.65
2019-02-27T09:58:00.929Z,14.86
2019-02-27T10:00:33.269Z,15.18
2019-02-27T10:03:01.641Z,15.55
2019-02-27T10:05:30.475Z,15.87
2019-02-27T10:07:59.259Z,16.24
2019-02-27T10:10:28.054Z,16.64
2019-02-27T10:12:57.083Z,16.96
2019-02-27T10:15:26.005Z,17.31
2019-02-27T10:17:54.696Z,17.59
2019-02-27T10:20:23.519Z,17.86
2019-02-27T10:22:54.057Z,18.07
2019-02-27T10:25:22.066Z,18.26
2019-02-27T10:27:50.915Z,18.40
2019-02-27T10:30:19.731Z,18.63
2019-02-27T10:32:49.051Z,18.83
2019-02-27T10:35:17.859Z,19.06
2019-02-27T10:37:50.324Z,19.20
2019-02-27T10:40:18.267Z,19.38
2019-02-27T10:42:47.100Z,19.55
2019-02-27T10:45:15.944Z,19.77
2019-02-27T10:47:44.747Z,19.98
2019-02-27T10:50:14.232Z,20.19
2019-02-27T10:52:43.026Z,20.36
2019-02-27T10:55:14.245Z,20.52
2019-02-27T10:57:41.920Z,20.75
2019-02-27T11:00:19.240Z,20.94
2019-02-27T11:02:48.605Z,21.04
2019-02-27T11:05:17.779Z,21.19
2019-02-27T11:07:46.604Z,21.33
2019-02-27T11:10:15.137Z,21.46
2019-02-27T11:12:43.943Z,21.63
2019-02-27T11:15:14.829Z,21.81
2019-02-27T11:17:44.749Z,21.93
2019-02-27T11:20:13.706Z,22.08
2019-02-27T11:22:42.523Z,22.20
2019-02-27T11:25:13.696Z,22.30
2019-02-27T11:27:42.499Z,22.41
2019-02-27T11:30:14.161Z,22.56
2019-02-27T11:32:43.071Z,22.73
2019-02-27T11:35:11.886Z,22.84
2019-02-27T11:37:40.730Z,22.97
2019-02-27T11:40:13.479Z,23.04
2019-02-27T11:42:43.215Z,23.14
2019-02-27T11:45:12.691Z,23.24
2019-02-27T11:47:44.715Z,23.21
2019-02-27T11:50:17.803Z,23.26
2019-02-27T11:52:48.857Z,23.39
2019-02-27T11:55:14.943Z,23.31
2019-02-27T11:57:43.591Z,23.39
2019-02-27T12:00:17.916Z,23.52
2019-02-27T12:02:44.567Z,23.66
2019-02-27T12:05:14.199Z,23.77
2019-02-27T12:07:43.916Z,23.88
2019-02-27T12:10:16.330Z,23.96
2019-02-27T12:12:45.158Z,24.04
2019-02-27T12:15:15.856Z,24.11
2019-02-27T12:17:46.988Z,24.10
2019-02-27T12:20:18.075Z,24.07
2019-02-27T12:22:43.394Z,24.08
2019-02-27T12:25:13.381Z,24.16
2019-02-27T12:27:49.027Z,24.24
2019-02-27T12:30:13.488Z,24.28
2019-02-27T12:32:42.343Z,24.33
2019-02-27T12:35:13.655Z,24.36
2019-02-27T12:37:42.523Z,24.41
2019-02-27T12:40:13.285Z,24.47
2019-02-27T12:42:42.733Z,24.50
2019-02-27T12:45:13.602Z,24.44
2019-02-27T12:47:42.380Z,24.48
2019-02-27T12:50:12.667Z,24.48
2019-02-27T12:52:44.371Z,24.46
2019-02-27T12:55:11.349Z,24.50
2019-02-27T12:57:40.184Z,24.47
2019-02-27T13:00:11.088Z,24.48
2019-02-27T13:02:39.897Z,24.43
2019-02-27T13:05:09.945Z,24.45
2019-02-27T13:07:38.741Z,24.43
2019-02-27T13:10:10.015Z,24.37
2019-02-27T13:12:38.822Z,24.40
2019-02-27T13:15:08.177Z,24.44
2019-02-27T13:17:37.056Z,24.42
2019-02-27T13:20:09.036Z,24.41
2019-02-27T13:22:37.723Z,24.33
2019-02-27T13:25:08.262Z,24.29
2019-02-27T13:27:37.048Z,24.26
2019-02-27T13:30:09.234Z,24.26
2019-02-27T13:32:35.491Z,24.19
2019-02-27T13:35:04.569Z,24.08
2019-02-27T13:37:33.383Z,24.03
2019-02-27T13:40:02.802Z,24.04
2019-02-27T13:42:31.640Z,24.05
2019-02-27T13:45:00.453Z,24.01
2019-02-27T13:47:31.069Z,24.03
2019-02-27T13:49:58.335Z,23.96
2019-02-27T13:52:28.128Z,23.93
2019-02-27T13:54:56.939Z,23.89
2019-02-27T13:57:25.908Z,23.80
2019-02-27T13:59:54.574Z,23.66
2019-02-27T14:02:24.236Z,23.60
2019-02-27T14:05:00.430Z,23.56
2019-02-27T14:07:27.540Z,23.55
2019-02-27T14:09:56.334Z,23.54
2019-02-27T14:12:25.219Z,23.48
2019-02-27T14:14:55.928Z,23.43
2019-02-27T14:17:24.051Z,23.29
2019-02-27T14:19:55.281Z,23.20
2019-02-27T14:22:21.675Z,23.16
2019-02-27T14:24:51.877Z,23.10
2019-02-27T14:27:20.203Z,23.04
2019-02-27T14:29:50.533Z,23.01
2019-02-27T14:32:20.620Z,22.99
2019-02-27T14:34:49.399Z,22.89
2019-02-27T14:37:18.174Z,22.85
2019-02-27T14:39:48.050Z,22.77
2019-02-27T14:42:16.847Z,22.75
2019-02-27T14:44:45.642Z,22.72
2019-02-27T14:47:16.402Z,22.68
2019-02-27T14:49:44.031Z,22.62
2019-02-27T14:52:14.316Z,22.56
2019-02-27T14:54:41.946Z,22.46
2019-02-27T14:57:12.909Z,22.33
2019-02-27T14:59:39.555Z,22.22
2019-02-27T15:02:08.387Z,22.08
2019-02-27T15:04:37.192Z,21.94
2019-02-27T15:07:06.027Z,21.80
2019-02-27T15:09:47.417Z,21.71
2019-02-27T15:12:06.688Z,21.64
2019-02-27T15:14:35.738Z,21.56
2019-02-27T15:17:04.519Z,21.45
2019-02-27T15:19:35.379Z,21.30
2019-02-27T15:22:02.146Z,21.15
2019-02-27T15:24:31.921Z,21.07
2019-02-27T15:27:00.343Z,20.96
2019-02-27T15:29:29.253Z,20.86
2019-02-27T15:31:58.083Z,20.71
2019-02-27T15:34:26.952Z,20.60
2019-02-27T15:36:55.811Z,20.54
2019-02-27T15:39:24.579Z,20.45
2019-02-27T15:41:54.337Z,20.29
2019-02-27T15:44:23.806Z,20.17
2019-02-27T15:46:53.507Z,20.06
2019-02-27T15:49:22.066Z,19.95
2019-02-27T15:51:50.914Z,19.87
2019-02-27T15:54:23.831Z,19.79
2019-02-27T15:56:51.678Z,19.69
2019-02-27T15:59:20.461Z,19.61
2019-02-27T16:01:49.249Z,19.50
2019-02-27T16:04:21.232Z,19.42
2019-02-27T16:06:46.927Z,19.35
2019-02-27T16:09:15.750Z,19.27
2019-02-27T16:11:48.153Z,19.21
2019-02-27T16:14:15.989Z,19.11
2019-02-27T16:16:47.536Z,19.00
2019-02-27T16:19:15.007Z,18.91
2019-02-27T16:21:44.328Z,18.82
2019-02-27T16:24:13.842Z,18.74
2019-02-27T16:26:43.447Z,18.65
2019-02-27T16:29:13.134Z,18.58
2019-02-27T16:31:42.640Z,18.48
2019-02-27T16:34:11.506Z,18.37
2019-02-27T16:36:40.279Z,18.29
2019-02-27T16:39:09.750Z,18.19
2019-02-27T16:41:46.105Z,18.09
2019-02-27T16:44:15.228Z,17.99
2019-02-27T16:46:44.931Z,17.91
2019-02-27T16:49:13.565Z,17.81
2019-02-27T16:51:42.472Z,17.69
2019-02-27T16:54:11.647Z,17.60
2019-02-27T16:56:46.575Z,17.49
2019-02-27T16:59:11.946Z,17.35
2019-02-27T17:01:39.212Z,17.25
2019-02-27T17:04:08.170Z,17.11
2019-02-27T17:06:37.043Z,16.99
2019-02-27T17:09:10.070Z,16.85
2019-02-27T17:11:38.093Z,16.72
2019-02-27T17:14:06.995Z,16.59
2019-02-27T17:16:35.836Z,16.46
2019-02-27T17:19:04.642Z,16.35
2019-02-27T17:21:34.210Z,16.24
2019-02-27T17:24:04.337Z,16.12
2019-02-27T17:26:35.305Z,16.00
2019-02-27T17:29:02.962Z,15.90
2019-02-27T17:31:32.274Z,15.78
2019-02-27T17:34:01.162Z,15.68
2019-02-27T17:36:32.087Z,15.57
2019-02-27T17:38:59.540Z,15.46
2019-02-27T17:41:28.917Z,15.36
2019-02-27T17:44:03.887Z,15.25
2019-02-27T17:46:26.900Z,15.15
2019-02-27T17:48:55.846Z,15.04
2019-02-27T17:51:25.132Z,14.95
2019-02-27T17:53:55.133Z,14.86
2019-02-27T17:56:23.441Z,14.78
2019-02-27T17:58:52.266Z,14.68
2019-02-27T18:01:24.936Z,14.59
2019-02-27T18:03:50.870Z,14.49
2019-02-27T18:06:19.721Z,14.40
2019-02-27T18:08:51.705Z,14.32
2019-02-27T18:11:18.934Z,14.21
2019-02-27T18:13:47.830Z,14.10
2019-02-27T18:16:16.563Z,14.00
2019-02-27T18:18:45.899Z,13.91
2019-02-27T18:21:14.739Z,13.80
2019-02-27T18:23:44.310Z,13.71
2019-02-27T18:26:15.656Z,13.63
2019-02-27T18:28:44.093Z,13.57
2019-02-27T18:31:13.525Z,13.48
2019-02-27T18:33:42.326Z,13.43
2019-02-27T18:36:11.220Z,13.36
2019-02-27T18:38:40.061Z,13.29
2019-02-27T18:41:08.871Z,13.21
2019-02-27T18:43:37.715Z,13.14
2019-02-27T18:46:07.241Z,13.05
2019-02-27T18:48:36.864Z,13.00
2019-02-27T18:51:06.514Z,12.95
2019-02-27T18:53:36.593Z,12.87
2019-02-27T18:56:06.653Z,12.83
2019-02-27T18:58:35.438Z,12.76
2019-02-27T19:01:09.499Z,12.68
2019-02-27T19:03:34.824Z,12.63
2019-02-27T19:06:03.653Z,12.56
2019-02-27T19:08:32.784Z,12.48
2019-02-27T19:11:01.617Z,12.42
2019-02-27T19:13:31.714Z,12.35
2019-02-27T19:15:59.384Z,12.30
2019-02-27T19:18:28.199Z,12.26
2019-02-27T19:20:59.230Z,12.21
2019-02-27T19:23:26.951Z,12.16
2019-02-27T19:25:56.627Z,12.13
2019-02-27T19:28:25.701Z,12.08
2019-02-27T19:30:55.009Z,12.04
2019-02-27T19:33:23.826Z,11.99
2019-02-27T19:35:55.845Z,11.93
2019-02-27T19:38:22.035Z,11.89
2019-02-27T19:40:50.815Z,11.85
2019-02-27T19:43:21.096Z,11.80
2019-02-27T19:45:49.061Z,11.76
2019-02-27T19:48:18.403Z,11.71
2019-02-27T19:50:47.723Z,11.67
2019-02-27T19:53:16.555Z,11.62
2019-02-27T19:55:45.376Z,11.61
2019-02-27T19:58:17.470Z,11.56
2019-02-27T20:00:48.468Z,11.50
2019-02-27T20:03:12.111Z,11.46
2019-02-27T20:05:40.910Z,11.43
2019-02-27T20:08:11.350Z,11.38
2019-02-27T20:10:40.758Z,11.36
2019-02-27T20:13:12.715Z,11.29
2019-02-27T20:15:42.806Z,11.25
2019-02-27T20:18:10.356Z,11.21
2019-02-27T20:20:41.484Z,11.18
2019-02-27T20:23:11.101Z,11.15
2019-02-27T20:25:44.194Z,11.12
2019-02-27T20:28:09.700Z,11.10
2019-02-27T20:30:39.541Z,11.06
2019-02-27T20:33:08.349Z,11.03
2019-02-27T20:35:37.133Z,10.99
2019-02-27T20:38:05.964Z,10.95
2019-02-27T20:40:35.238Z,10.92
2019-02-27T20:43:03.764Z,10.90
2019-02-27T20:45:33.505Z,10.85
2019-02-27T20:48:02.389Z,10.83
2019-02-27T20:50:36.363Z,10.79
2019-02-27T20:53:05.427Z,10.74
2019-02-27T20:55:34.801Z,10.71
2019-02-27T20:58:03.967Z,10.66
2019-02-27T21:00:35.937Z,10.64
2019-02-27T21:03:02.580Z,10.62
2019-02-27T21:05:30.554Z,10.58
2019-02-27T21:08:02.036Z,10.51
2019-02-27T21:10:28.858Z,10.48
2019-02-27T21:12:58.180Z,10.46
2019-02-27T21:15:29.302Z,10.41
2019-02-27T21:17:58.468Z,10.38
2019-02-27T21:20:25.235Z,10.36
2019-02-27T21:22:55.023Z,10.34
2019-02-27T21:25:24.431Z,10.31
2019-02-27T21:27:53.257Z,10.28
2019-02-27T21:30:22.124Z,10.26
2019-02-27T21:32:51.895Z,10.22
2019-02-27T21:35:21.383Z,10.19
2019-02-27T21:37:51.181Z,10.15
2019-02-27T21:40:20.595Z,10.12
2019-02-27T21:42:51.830Z,10.08
2019-02-27T21:45:20.236Z,10.06
2019-02-27T21:47:52.947Z,10.01
2019-02-27T21:50:21.228Z,9.97
2019-02-27T21:52:50.018Z,9.92
2019-02-27T21:55:18.827Z,9.88
2019-02-27T21:57:47.623Z,9.85
2019-02-27T22:00:20.385Z,9.81
2019-02-27T22:02:50.297Z,9.78
2019-02-27T22:05:20.120Z,9.73
2019-02-27T22:07:49.912Z,9.68
2019-02-27T22:10:20.543Z,9.63
2019-02-27T22:12:48.948Z,9.59
2019-02-27T22:15:22.923Z,9.53
2019-02-27T22:17:51.757Z,9.49
2019-02-27T22:20:22.191Z,9.43
2019-02-27T22:22:53.285Z,9.38
2019-02-27T22:25:23.103Z,9.33
2019-02-27T22:27:52.474Z,9.28
2019-02-27T22:30:21.774Z,9.24
2019-02-27T22:32:51.531Z,9.20
2019-02-27T22:35:20.306Z,9.15
2019-02-27T22:37:52.491Z,9.08
2019-02-27T22:40:19.227Z,9.04
2019-02-27T22:42:50.552Z,8.98
2019-02-27T22:45:20.620Z,8.93
2019-02-27T22:47:49.914Z,8.88
2019-02-27T22:50:19.377Z,8.84
2019-02-27T22:52:54.162Z,8.79
2019-02-27T22:55:18.139Z,8.75
2019-02-27T22:57:47.682Z,8.71
2019-02-27T23:00:37.890Z,8.67
2019-02-27T23:03:06.700Z,8.59
2019-02-27T23:05:38.182Z,8.54
2019-02-27T23:08:04.277Z,8.49
2019-02-27T23:10:35.174Z,8.43
2019-02-27T23:13:04.018Z,8.39
2019-02-27T23:15:33.354Z,8.35
2019-02-27T23:18:02.582Z,8.32
2019-02-27T23:20:32.627Z,8.27
2019-02-27T23:23:03.791Z,8.21
2019-02-27T23:25:33.906Z,8.17
2019-02-27T23:28:03.885Z,8.10
2019-02-27T23:30:32.670Z,8.05
2019-02-27T23:33:02.938Z,8.00
2019-02-27T23:35:32.524Z,7.95
2019-02-27T23:38:03.312Z,7.90
2019-02-27T23:40:33.177Z,7.87
2019-02-27T23:43:03.489Z,7.83
2019-02-27T23:45:31.628Z,7.78
2019-02-27T23:48:02.222Z,7.74
2019-02-27T23:50:29.891Z,7.69
2019-02-27T23:52:58.690Z,7.66
2019-02-27T23:55:27.464Z,7.62
2019-02-27T23:57:57.922Z,7.58
